sensor_id;sensor_type;location;lat;lon;timestamp;temperature;humidity
19734;DHT22;10018;51.230;7.860;2024-03-08T00:00:40;1.80;99.90
19734;DHT22;10018;51.230;7.860;2024-03-08T00:03:08;1.80;99.90
19734;DHT22;10018;51.230;7.860;2024-03-08T00:05:36;1.80;99.90
19734;DHT22;10018;51.230;7.860;2024-03-08T00:08:05;1.80;99.90
19734;DHT22;10018;51.230;7.860;2024-03-08T00:10:35;1.80;99.90
19734;DHT22;10018;51.230;7.860;2024-03-08T00:13:00;1.70;99.90
19734;DHT22;10018;51.230;7.860;2024-03-08T00:15:29;1.50;99.90
19734;DHT22;10018;51.230;7.860;2024-03-08T00:17:55;1.50;99.90
19734;DHT22;10018;51.230;7.860;2024-03-08T00:20:20;1.40;99.90
19734;DHT22;10018;51.230;7.860;2024-03-08T00:22:48;1.30;99.90
19734;DHT22;10018;51.230;7.860;2024-03-08T00:25:14;1.20;99.90
19734;DHT22;10018;51.230;7.860;2024-03-08T00:27:40;1.10;99.90
19734;DHT22;10018;51.230;7.860;2024-03-08T00:30:07;1.20;99.90
19734;DHT22;10018;51.230;7.860;2024-03-08T00:32:33;1.10;99.90
19734;DHT22;10018;51.230;7.860;2024-03-08T00:34:59;1.10;99.90
19734;DHT22;10018;51.230;7.860;2024-03-08T00:37:24;1.10;99.90
19734;DHT22;10018;51.230;7.860;2024-03-08T00:39:51;1.10;99.90
19734;DHT22;10018;51.230;7.860;2024-03-08T00:42:20;1.00;99.90
19734;DHT22;10018;51.230;7.860;2024-03-08T00:44:46;0.90;99.90
19734;DHT22;10018;51.230;7.860;2024-03-08T00:47:12;0.90;99.90
19734;DHT22;10018;51.230;7.860;2024-03-08T00:49:38;0.80;99.90
19734;DHT22;10018;51.230;7.860;2024-03-08T00:52:05;0.70;99.90
19734;DHT22;10018;51.230;7.860;2024-03-08T00:54:32;0.70;99.90
19734;DHT22;10018;51.230;7.860;2024-03-08T00:56:58;0.70;99.90
19734;DHT22;10018;51.230;7.860;2024-03-08T00:59:23;0.60;99.90
19734;DHT22;10018;51.230;7.860;2024-03-08T01:01:49;0.70;99.90
19734;DHT22;10018;51.230;7.860;2024-03-08T01:04:15;0.60;99.90
19734;DHT22;10018;51.230;7.860;2024-03-08T01:06:40;0.50;99.90
19734;DHT22;10018;51.230;7.860;2024-03-08T01:09:08;0.40;99.90
19734;DHT22;10018;51.230;7.860;2024-03-08T01:11:34;0.50;99.90
19734;DHT22;10018;51.230;7.860;2024-03-08T01:14:00;0.50;99.90
19734;DHT22;10018;51.230;7.860;2024-03-08T01:16:25;0.50;99.90
19734;DHT22;10018;51.230;7.860;2024-03-08T01:18:53;0.40;99.90
19734;DHT22;10018;51.230;7.860;2024-03-08T01:21:19;0.40;99.90
19734;DHT22;10018;51.230;7.860;2024-03-08T01:23:45;0.30;99.90
19734;DHT22;10018;51.230;7.860;2024-03-08T01:26:10;0.30;99.90
19734;DHT22;10018;51.230;7.860;2024-03-08T01:28:36;0.20;99.90
19734;DHT22;10018;51.230;7.860;2024-03-08T01:31:02;0.20;99.90
19734;DHT22;10018;51.230;7.860;2024-03-08T01:33:31;0.20;99.90
19734;DHT22;10018;51.230;7.860;2024-03-08T01:35:57;0.20;99.90
19734;DHT22;10018;51.230;7.860;2024-03-08T01:38:22;0.20;99.90
19734;DHT22;10018;51.230;7.860;2024-03-08T01:40:50;0.10;99.90
19734;DHT22;10018;51.230;7.860;2024-03-08T01:43:21;0.10;99.90
19734;DHT22;10018;51.230;7.860;2024-03-08T01:45:47;0.00;99.90
19734;DHT22;10018;51.230;7.860;2024-03-08T01:48:16;0.10;99.90
19734;DHT22;10018;51.230;7.860;2024-03-08T01:50:43;0.10;99.90
19734;DHT22;10018;51.230;7.860;2024-03-08T01:53:08;0.00;99.90
19734;DHT22;10018;51.230;7.860;2024-03-08T01:55:36;0.00;99.90
19734;DHT22;10018;51.230;7.860;2024-03-08T01:58:03;0.00;99.90
19734;DHT22;10018;51.230;7.860;2024-03-08T02:00:30;-0.10;99.90
19734;DHT22;10018;51.230;7.860;2024-03-08T02:02:57;-0.10;99.90
19734;DHT22;10018;51.230;7.860;2024-03-08T02:05:23;-0.10;99.90
19734;DHT22;10018;51.230;7.860;2024-03-08T02:07:49;-0.20;99.90
19734;DHT22;10018;51.230;7.860;2024-03-08T02:10:14;-0.20;99.90
19734;DHT22;10018;51.230;7.860;2024-03-08T02:12:41;-0.20;99.90
19734;DHT22;10018;51.230;7.860;2024-03-08T02:15:07;-0.20;99.90
19734;DHT22;10018;51.230;7.860;2024-03-08T02:17:35;-0.20;99.90
19734;DHT22;10018;51.230;7.860;2024-03-08T02:20:01;-0.20;99.90
19734;DHT22;10018;51.230;7.860;2024-03-08T02:22:29;-0.20;99.90
19734;DHT22;10018;51.230;7.860;2024-03-08T02:24:55;-0.20;99.90
19734;DHT22;10018;51.230;7.860;2024-03-08T02:27:24;-0.20;99.90
19734;DHT22;10018;51.230;7.860;2024-03-08T02:29:57;-0.20;99.90
19734;DHT22;10018;51.230;7.860;2024-03-08T02:32:26;-0.20;99.90
19734;DHT22;10018;51.230;7.860;2024-03-08T02:35:00;-0.20;99.90
19734;DHT22;10018;51.230;7.860;2024-03-08T02:37:26;-0.30;99.90
19734;DHT22;10018;51.230;7.860;2024-03-08T02:39:54;-0.30;99.90
19734;DHT22;10018;51.230;7.860;2024-03-08T02:42:20;-0.40;99.90
19734;DHT22;10018;51.230;7.860;2024-03-08T02:44:48;-0.30;99.90
19734;DHT22;10018;51.230;7.860;2024-03-08T02:47:16;-0.40;99.90
19734;DHT22;10018;51.230;7.860;2024-03-08T02:49:41;-0.40;99.90
19734;DHT22;10018;51.230;7.860;2024-03-08T02:52:07;-0.40;99.90
19734;DHT22;10018;51.230;7.860;2024-03-08T02:54:33;-0.40;99.90
19734;DHT22;10018;51.230;7.860;2024-03-08T02:56:58;-0.50;99.90
19734;DHT22;10018;51.230;7.860;2024-03-08T02:59:24;-0.50;99.90
19734;DHT22;10018;51.230;7.860;2024-03-08T03:01:49;-0.50;99.90
19734;DHT22;10018;51.230;7.860;2024-03-08T03:04:17;-0.50;99.90
19734;DHT22;10018;51.230;7.860;2024-03-08T03:06:43;-0.50;99.90
19734;DHT22;10018;51.230;7.860;2024-03-08T03:09:09;-0.50;99.90
19734;DHT22;10018;51.230;7.860;2024-03-08T03:11:35;-0.50;99.90
19734;DHT22;10018;51.230;7.860;2024-03-08T03:14:01;-0.50;99.90
19734;DHT22;10018;51.230;7.860;2024-03-08T03:16:29;-0.50;99.90
19734;DHT22;10018;51.230;7.860;2024-03-08T03:18:54;-0.50;99.90
19734;DHT22;10018;51.230;7.860;2024-03-08T03:21:22;-0.50;99.90
19734;DHT22;10018;51.230;7.860;2024-03-08T03:23:48;-0.60;99.90
19734;DHT22;10018;51.230;7.860;2024-03-08T03:26:13;-0.70;99.90
19734;DHT22;10018;51.230;7.860;2024-03-08T03:28:42;-0.70;99.90
19734;DHT22;10018;51.230;7.860;2024-03-08T03:31:08;-0.70;99.90
19734;DHT22;10018;51.230;7.860;2024-03-08T03:33:39;-0.70;99.90
19734;DHT22;10018;51.230;7.860;2024-03-08T03:36:05;-0.70;99.90
19734;DHT22;10018;51.230;7.860;2024-03-08T03:38:31;-0.70;99.90
19734;DHT22;10018;51.230;7.860;2024-03-08T03:40:57;-0.70;99.90
19734;DHT22;10018;51.230;7.860;2024-03-08T03:43:29;-0.70;99.90
19734;DHT22;10018;51.230;7.860;2024-03-08T03:45:55;-0.70;99.90
19734;DHT22;10018;51.230;7.860;2024-03-08T03:48:21;-0.80;99.90
19734;DHT22;10018;51.230;7.860;2024-03-08T03:50:46;-0.80;99.90
19734;DHT22;10018;51.230;7.860;2024-03-08T03:53:12;-0.80;99.90
19734;DHT22;10018;51.230;7.860;2024-03-08T03:55:38;-0.80;99.90
19734;DHT22;10018;51.230;7.860;2024-03-08T03:58:04;-0.80;99.90
19734;DHT22;10018;51.230;7.860;2024-03-08T04:00:32;-0.80;99.90
19734;DHT22;10018;51.230;7.860;2024-03-08T04:02:58;-0.90;99.90
19734;DHT22;10018;51.230;7.860;2024-03-08T04:05:26;-0.80;99.90
19734;DHT22;10018;51.230;7.860;2024-03-08T04:07:53;-0.90;99.90
19734;DHT22;10018;51.230;7.860;2024-03-08T04:10:19;-0.80;99.90
19734;DHT22;10018;51.230;7.860;2024-03-08T04:12:45;-0.90;99.90
19734;DHT22;10018;51.230;7.860;2024-03-08T04:15:14;-0.90;99.90
19734;DHT22;10018;51.230;7.860;2024-03-08T04:17:39;-1.00;99.90
19734;DHT22;10018;51.230;7.860;2024-03-08T04:20:05;-1.00;99.90
19734;DHT22;10018;51.230;7.860;2024-03-08T04:22:40;-1.00;99.90
19734;DHT22;10018;51.230;7.860;2024-03-08T04:25:06;-1.00;99.90
19734;DHT22;10018;51.230;7.860;2024-03-08T04:27:35;-1.00;99.90
19734;DHT22;10018;51.230;7.860;2024-03-08T04:30:02;-1.00;99.90
19734;DHT22;10018;51.230;7.860;2024-03-08T04:32:28;-1.00;99.90
19734;DHT22;10018;51.230;7.860;2024-03-08T04:34:55;-1.00;99.90
19734;DHT22;10018;51.230;7.860;2024-03-08T04:37:20;-1.00;99.90
19734;DHT22;10018;51.230;7.860;2024-03-08T04:39:49;-1.00;99.90
19734;DHT22;10018;51.230;7.860;2024-03-08T04:42:15;-1.10;99.90
19734;DHT22;10018;51.230;7.860;2024-03-08T04:44:45;-1.10;99.90
19734;DHT22;10018;51.230;7.860;2024-03-08T04:47:13;-1.10;99.90
19734;DHT22;10018;51.230;7.860;2024-03-08T04:49:43;-1.10;99.90
19734;DHT22;10018;51.230;7.860;2024-03-08T04:52:08;-1.10;99.90
19734;DHT22;10018;51.230;7.860;2024-03-08T04:54:34;-1.10;99.90
19734;DHT22;10018;51.230;7.860;2024-03-08T04:57:00;-1.10;99.90
19734;DHT22;10018;51.230;7.860;2024-03-08T04:59:26;-1.10;99.90
19734;DHT22;10018;51.230;7.860;2024-03-08T05:01:52;-1.10;99.90
19734;DHT22;10018;51.230;7.860;2024-03-08T05:04:18;-1.10;99.90
19734;DHT22;10018;51.230;7.860;2024-03-08T05:06:44;-1.10;99.90
19734;DHT22;10018;51.230;7.860;2024-03-08T05:09:10;-1.20;99.90
19734;DHT22;10018;51.230;7.860;2024-03-08T05:11:45;-1.20;99.90
19734;DHT22;10018;51.230;7.860;2024-03-08T05:14:12;-1.20;99.90
19734;DHT22;10018;51.230;7.860;2024-03-08T05:16:42;-1.20;99.90
19734;DHT22;10018;51.230;7.860;2024-03-08T05:19:10;-1.20;99.90
19734;DHT22;10018;51.230;7.860;2024-03-08T05:21:35;-1.20;99.90
19734;DHT22;10018;51.230;7.860;2024-03-08T05:24:01;-1.30;99.90
19734;DHT22;10018;51.230;7.860;2024-03-08T05:26:27;-1.30;99.90
19734;DHT22;10018;51.230;7.860;2024-03-08T05:28:52;-1.30;99.90
19734;DHT22;10018;51.230;7.860;2024-03-08T05:31:21;-1.30;99.90
19734;DHT22;10018;51.230;7.860;2024-03-08T05:33:50;-1.40;99.90
19734;DHT22;10018;51.230;7.860;2024-03-08T05:36:16;-1.40;99.90
19734;DHT22;10018;51.230;7.860;2024-03-08T05:38:44;-1.40;99.90
19734;DHT22;10018;51.230;7.860;2024-03-08T05:41:10;-1.40;99.90
19734;DHT22;10018;51.230;7.860;2024-03-08T05:43:37;-1.40;99.90
19734;DHT22;10018;51.230;7.860;2024-03-08T05:46:05;-1.40;99.90
19734;DHT22;10018;51.230;7.860;2024-03-08T05:48:31;-1.50;99.90
19734;DHT22;10018;51.230;7.860;2024-03-08T05:51:02;-1.50;99.90
19734;DHT22;10018;51.230;7.860;2024-03-08T05:53:28;-1.40;99.90
19734;DHT22;10018;51.230;7.860;2024-03-08T05:55:57;-1.40;99.90
19734;DHT22;10018;51.230;7.860;2024-03-08T05:58:23;-1.40;99.90
19734;DHT22;10018;51.230;7.860;2024-03-08T06:00:49;-1.50;99.90
19734;DHT22;10018;51.230;7.860;2024-03-08T06:03:14;-1.50;99.90
19734;DHT22;10018;51.230;7.860;2024-03-08T06:05:40;-1.50;99.90
19734;DHT22;10018;51.230;7.860;2024-03-08T06:08:07;-1.50;99.90
19734;DHT22;10018;51.230;7.860;2024-03-08T06:10:33;-1.50;99.90
19734;DHT22;10018;51.230;7.860;2024-03-08T06:12:59;-1.50;99.90
19734;DHT22;10018;51.230;7.860;2024-03-08T06:15:27;-1.40;99.90
19734;DHT22;10018;51.230;7.860;2024-03-08T06:17:52;-1.50;99.90
19734;DHT22;10018;51.230;7.860;2024-03-08T06:20:18;-1.40;99.90
19734;DHT22;10018;51.230;7.860;2024-03-08T06:22:44;-1.40;99.90
19734;DHT22;10018;51.230;7.860;2024-03-08T06:25:11;-1.40;99.90
19734;DHT22;10018;51.230;7.860;2024-03-08T06:27:40;-1.40;99.90
19734;DHT22;10018;51.230;7.860;2024-03-08T06:30:06;-1.40;99.90
19734;DHT22;10018;51.230;7.860;2024-03-08T06:32:32;-1.40;99.90
19734;DHT22;10018;51.230;7.860;2024-03-08T06:35:02;-1.40;99.90
19734;DHT22;10018;51.230;7.860;2024-03-08T06:37:29;-1.40;99.90
19734;DHT22;10018;51.230;7.860;2024-03-08T06:39:56;-1.40;99.90
19734;DHT22;10018;51.230;7.860;2024-03-08T06:42:22;-1.30;99.90
19734;DHT22;10018;51.230;7.860;2024-03-08T06:44:48;-1.30;99.90
19734;DHT22;10018;51.230;7.860;2024-03-08T06:47:16;-1.20;99.90
19734;DHT22;10018;51.230;7.860;2024-03-08T06:49:45;-1.20;99.90
19734;DHT22;10018;51.230;7.860;2024-03-08T06:52:10;-1.20;99.90
19734;DHT22;10018;51.230;7.860;2024-03-08T06:54:37;-1.10;99.90
19734;DHT22;10018;51.230;7.860;2024-03-08T06:57:08;-1.00;99.90
19734;DHT22;10018;51.230;7.860;2024-03-08T06:59:35;-0.90;99.90
19734;DHT22;10018;51.230;7.860;2024-03-08T07:02:02;-0.80;99.90
19734;DHT22;10018;51.230;7.860;2024-03-08T07:04:27;-0.80;99.90
19734;DHT22;10018;51.230;7.860;2024-03-08T07:06:58;-0.70;99.90
19734;DHT22;10018;51.230;7.860;2024-03-08T07:09:24;-0.50;99.90
19734;DHT22;10018;51.230;7.860;2024-03-08T07:11:54;-0.40;99.90
19734;DHT22;10018;51.230;7.860;2024-03-08T07:14:23;-0.30;99.90
19734;DHT22;10018;51.230;7.860;2024-03-08T07:16:49;-0.30;99.90
19734;DHT22;10018;51.230;7.860;2024-03-08T07:19:15;-0.20;99.90
19734;DHT22;10018;51.230;7.860;2024-03-08T07:21:44;-0.10;99.90
19734;DHT22;10018;51.230;7.860;2024-03-08T07:24:11;0.10;99.90
19734;DHT22;10018;51.230;7.860;2024-03-08T07:26:43;0.20;99.90
19734;DHT22;10018;51.230;7.860;2024-03-08T07:29:08;0.20;99.90
19734;DHT22;10018;51.230;7.860;2024-03-08T07:31:34;0.20;99.90
19734;DHT22;10018;51.230;7.860;2024-03-08T07:34:02;0.30;99.90
19734;DHT22;10018;51.230;7.860;2024-03-08T07:36:29;0.40;99.90
19734;DHT22;10018;51.230;7.860;2024-03-08T07:38:54;0.50;99.90
19734;DHT22;10018;51.230;7.860;2024-03-08T07:41:20;0.60;99.90
19734;DHT22;10018;51.230;7.860;2024-03-08T07:43:45;0.70;99.90
19734;DHT22;10018;51.230;7.860;2024-03-08T07:46:11;0.80;99.90
19734;DHT22;10018;51.230;7.860;2024-03-08T07:48:38;0.90;99.90
19734;DHT22;10018;51.230;7.860;2024-03-08T07:51:05;1.00;99.90
19734;DHT22;10018;51.230;7.860;2024-03-08T07:53:31;1.10;99.90
19734;DHT22;10018;51.230;7.860;2024-03-08T07:55:59;1.20;99.90
19734;DHT22;10018;51.230;7.860;2024-03-08T07:58:27;1.20;99.90
19734;DHT22;10018;51.230;7.860;2024-03-08T08:00:53;1.40;99.90
19734;DHT22;10018;51.230;7.860;2024-03-08T08:03:20;1.50;99.90
19734;DHT22;10018;51.230;7.860;2024-03-08T08:05:48;1.60;99.90
19734;DHT22;10018;51.230;7.860;2024-03-08T08:08:14;1.70;99.90
19734;DHT22;10018;51.230;7.860;2024-03-08T08:10:40;1.90;99.90
19734;DHT22;10018;51.230;7.860;2024-03-08T08:13:06;2.00;99.90
19734;DHT22;10018;51.230;7.860;2024-03-08T08:15:31;2.10;99.90
19734;DHT22;10018;51.230;7.860;2024-03-08T08:17:59;2.30;99.90
19734;DHT22;10018;51.230;7.860;2024-03-08T08:20:27;2.50;99.90
19734;DHT22;10018;51.230;7.860;2024-03-08T08:22:54;2.60;99.90
19734;DHT22;10018;51.230;7.860;2024-03-08T08:25:20;2.70;99.90
19734;DHT22;10018;51.230;7.860;2024-03-08T08:27:48;2.90;99.90
19734;DHT22;10018;51.230;7.860;2024-03-08T08:30:14;3.00;99.90
19734;DHT22;10018;51.230;7.860;2024-03-08T08:32:39;3.10;99.90
19734;DHT22;10018;51.230;7.860;2024-03-08T08:35:06;3.30;99.90
19734;DHT22;10018;51.230;7.860;2024-03-08T08:37:32;3.50;99.90
19734;DHT22;10018;51.230;7.860;2024-03-08T08:40:01;3.60;99.90
19734;DHT22;10018;51.230;7.860;2024-03-08T08:42:34;3.80;99.90
19734;DHT22;10018;51.230;7.860;2024-03-08T08:45:00;4.00;99.90
19734;DHT22;10018;51.230;7.860;2024-03-08T08:47:27;4.00;99.90
19734;DHT22;10018;51.230;7.860;2024-03-08T08:49:52;4.20;99.90
19734;DHT22;10018;51.230;7.860;2024-03-08T08:52:19;4.40;99.90
19734;DHT22;10018;51.230;7.860;2024-03-08T08:54:45;4.50;99.90
19734;DHT22;10018;51.230;7.860;2024-03-08T08:57:10;4.60;99.90
19734;DHT22;10018;51.230;7.860;2024-03-08T08:59:36;4.80;99.90
19734;DHT22;10018;51.230;7.860;2024-03-08T09:02:05;4.80;99.90
19734;DHT22;10018;51.230;7.860;2024-03-08T09:04:33;5.00;99.90
19734;DHT22;10018;51.230;7.860;2024-03-08T09:06:59;5.10;99.90
19734;DHT22;10018;51.230;7.860;2024-03-08T09:09:24;5.20;99.90
19734;DHT22;10018;51.230;7.860;2024-03-08T09:11:51;5.40;99.90
19734;DHT22;10018;51.230;7.860;2024-03-08T09:14:16;5.40;99.90
19734;DHT22;10018;51.230;7.860;2024-03-08T09:16:42;5.50;99.90
19734;DHT22;10018;51.230;7.860;2024-03-08T09:19:08;5.60;99.90
19734;DHT22;10018;51.230;7.860;2024-03-08T09:21:38;5.60;99.90
19734;DHT22;10018;51.230;7.860;2024-03-08T09:24:06;5.70;99.90
19734;DHT22;10018;51.230;7.860;2024-03-08T09:26:32;5.80;99.90
19734;DHT22;10018;51.230;7.860;2024-03-08T09:28:59;5.90;99.90
19734;DHT22;10018;51.230;7.860;2024-03-08T09:31:24;5.90;99.90
19734;DHT22;10018;51.230;7.860;2024-03-08T09:33:51;6.00;99.90
19734;DHT22;10018;51.230;7.860;2024-03-08T09:36:17;6.10;99.90
19734;DHT22;10018;51.230;7.860;2024-03-08T09:38:43;6.20;99.90
19734;DHT22;10018;51.230;7.860;2024-03-08T09:41:09;6.20;99.90
19734;DHT22;10018;51.230;7.860;2024-03-08T09:43:36;6.20;99.90
19734;DHT22;10018;51.230;7.860;2024-03-08T09:46:02;6.30;99.90
19734;DHT22;10018;51.230;7.860;2024-03-08T09:48:31;6.30;99.90
19734;DHT22;10018;51.230;7.860;2024-03-08T09:51:00;6.30;99.90
19734;DHT22;10018;51.230;7.860;2024-03-08T09:53:25;6.30;99.90
19734;DHT22;10018;51.230;7.860;2024-03-08T09:55:51;6.40;99.90
19734;DHT22;10018;51.230;7.860;2024-03-08T09:58:17;6.40;99.90
19734;DHT22;10018;51.230;7.860;2024-03-08T10:01:02;6.50;99.90
19734;DHT22;10018;51.230;7.860;2024-03-08T10:03:29;6.60;99.90
19734;DHT22;10018;51.230;7.860;2024-03-08T10:05:57;6.60;99.90
19734;DHT22;10018;51.230;7.860;2024-03-08T10:08:29;6.70;99.90
19734;DHT22;10018;51.230;7.860;2024-03-08T10:11:00;6.80;99.90
19734;DHT22;10018;51.230;7.860;2024-03-08T10:13:26;6.70;99.90
19734;DHT22;10018;51.230;7.860;2024-03-08T10:15:53;6.80;99.90
19734;DHT22;10018;51.230;7.860;2024-03-08T10:18:19;6.90;99.90
19734;DHT22;10018;51.230;7.860;2024-03-08T10:20:44;6.90;99.90
19734;DHT22;10018;51.230;7.860;2024-03-08T10:23:12;7.00;99.90
19734;DHT22;10018;51.230;7.860;2024-03-08T10:25:40;7.10;99.90
19734;DHT22;10018;51.230;7.860;2024-03-08T10:28:07;7.20;99.90
19734;DHT22;10018;51.230;7.860;2024-03-08T10:30:33;7.30;99.90
19734;DHT22;10018;51.230;7.860;2024-03-08T10:32:59;7.50;99.90
19734;DHT22;10018;51.230;7.860;2024-03-08T10:35:27;7.50;99.90
19734;DHT22;10018;51.230;7.860;2024-03-08T10:37:52;7.60;99.90
19734;DHT22;10018;51.230;7.860;2024-03-08T10:40:28;7.60;99.90
19734;DHT22;10018;51.230;7.860;2024-03-08T10:45:38;7.70;99.90
19734;DHT22;10018;51.230;7.860;2024-03-08T10:48:30;7.70;99.90
19734;DHT22;10018;51.230;7.860;2024-03-08T10:51:04;7.80;99.90
19734;DHT22;10018;51.230;7.860;2024-03-08T10:53:30;7.90;99.90
19734;DHT22;10018;51.230;7.860;2024-03-08T10:56:01;7.90;99.90
19734;DHT22;10018;51.230;7.860;2024-03-08T10:58:28;8.00;99.90
19734;DHT22;10018;51.230;7.860;2024-03-08T11:00:58;8.10;99.90
19734;DHT22;10018;51.230;7.860;2024-03-08T11:09:10;8.20;99.90
19734;DHT22;10018;51.230;7.860;2024-03-08T11:11:42;8.30;99.90
19734;DHT22;10018;51.230;7.860;2024-03-08T11:14:43;8.40;99.90
19734;DHT22;10018;51.230;7.860;2024-03-08T11:17:09;8.40;99.90
19734;DHT22;10018;51.230;7.860;2024-03-08T11:19:35;8.50;99.90
19734;DHT22;10018;51.230;7.860;2024-03-08T11:22:05;8.60;99.90
19734;DHT22;10018;51.230;7.860;2024-03-08T11:24:39;8.70;99.90
19734;DHT22;10018;51.230;7.860;2024-03-08T11:27:05;8.80;99.90
19734;DHT22;10018;51.230;7.860;2024-03-08T11:29:35;8.90;99.90
19734;DHT22;10018;51.230;7.860;2024-03-08T11:32:16;8.90;99.90
19734;DHT22;10018;51.230;7.860;2024-03-08T11:34:46;8.90;99.90
19734;DHT22;10018;51.230;7.860;2024-03-08T11:37:20;8.80;99.90
19734;DHT22;10018;51.230;7.860;2024-03-08T11:42:24;9.00;99.90
19734;DHT22;10018;51.230;7.860;2024-03-08T11:44:52;9.20;99.90
19734;DHT22;10018;51.230;7.860;2024-03-08T11:47:19;9.20;99.90
19734;DHT22;10018;51.230;7.860;2024-03-08T11:49:47;9.20;99.90
19734;DHT22;10018;51.230;7.860;2024-03-08T11:52:15;9.20;99.90
19734;DHT22;10018;51.230;7.860;2024-03-08T11:54:41;9.20;99.90
19734;DHT22;10018;51.230;7.860;2024-03-08T11:57:09;9.30;99.90
19734;DHT22;10018;51.230;7.860;2024-03-08T11:59:35;9.50;99.90
19734;DHT22;10018;51.230;7.860;2024-03-08T12:02:03;9.50;99.90
19734;DHT22;10018;51.230;7.860;2024-03-08T12:04:29;9.60;99.90
19734;DHT22;10018;51.230;7.860;2024-03-08T12:06:56;9.50;99.90
19734;DHT22;10018;51.230;7.860;2024-03-08T12:09:26;9.60;99.90
19734;DHT22;10018;51.230;7.860;2024-03-08T12:11:52;9.70;99.90
19734;DHT22;10018;51.230;7.860;2024-03-08T12:14:17;9.70;99.90
19734;DHT22;10018;51.230;7.860;2024-03-08T12:16:43;9.80;99.90
19734;DHT22;10018;51.230;7.860;2024-03-08T12:19:11;9.90;99.90
19734;DHT22;10018;51.230;7.860;2024-03-08T12:21:42;9.90;99.90
19734;DHT22;10018;51.230;7.860;2024-03-08T12:24:17;10.10;99.90
19734;DHT22;10018;51.230;7.860;2024-03-08T12:26:49;10.00;99.90
19734;DHT22;10018;51.230;7.860;2024-03-08T12:29:19;10.00;99.90
19734;DHT22;10018;51.230;7.860;2024-03-08T12:31:52;9.90;99.90
19734;DHT22;10018;51.230;7.860;2024-03-08T12:34:18;9.90;99.90
19734;DHT22;10018;51.230;7.860;2024-03-08T12:36:45;9.90;99.90
19734;DHT22;10018;51.230;7.860;2024-03-08T12:39:13;9.90;99.90
19734;DHT22;10018;51.230;7.860;2024-03-08T12:41:41;10.00;99.90
19734;DHT22;10018;51.230;7.860;2024-03-08T12:44:07;10.10;99.90
19734;DHT22;10018;51.230;7.860;2024-03-08T12:46:37;10.10;99.90
19734;DHT22;10018;51.230;7.860;2024-03-08T12:49:09;10.20;99.90
19734;DHT22;10018;51.230;7.860;2024-03-08T12:51:35;10.30;99.90
19734;DHT22;10018;51.230;7.860;2024-03-08T12:54:01;10.20;99.90
19734;DHT22;10018;51.230;7.860;2024-03-08T12:56:31;10.40;99.90
19734;DHT22;10018;51.230;7.860;2024-03-08T12:59:01;10.40;99.90
19734;DHT22;10018;51.230;7.860;2024-03-08T13:01:28;10.30;99.90
19734;DHT22;10018;51.230;7.860;2024-03-08T13:03:54;10.20;99.90
19734;DHT22;10018;51.230;7.860;2024-03-08T13:06:21;10.20;99.90
19734;DHT22;10018;51.230;7.860;2024-03-08T13:08:50;10.50;99.90
19734;DHT22;10018;51.230;7.860;2024-03-08T13:11:20;10.30;99.90
19734;DHT22;10018;51.230;7.860;2024-03-08T13:13:46;10.40;99.90
19734;DHT22;10018;51.230;7.860;2024-03-08T13:16:12;10.20;99.90
19734;DHT22;10018;51.230;7.860;2024-03-08T13:18:43;10.40;99.90
19734;DHT22;10018;51.230;7.860;2024-03-08T13:21:09;10.60;99.90
19734;DHT22;10018;51.230;7.860;2024-03-08T13:23:37;10.50;99.90
19734;DHT22;10018;51.230;7.860;2024-03-08T13:26:12;10.20;99.90
19734;DHT22;10018;51.230;7.860;2024-03-08T13:28:45;10.20;99.90
19734;DHT22;10018;51.230;7.860;2024-03-08T13:31:11;10.30;99.90
19734;DHT22;10018;51.230;7.860;2024-03-08T13:33:37;10.50;99.90
19734;DHT22;10018;51.230;7.860;2024-03-08T13:36:14;10.50;99.90
19734;DHT22;10018;51.230;7.860;2024-03-08T13:38:44;10.90;99.90
19734;DHT22;10018;51.230;7.860;2024-03-08T13:41:10;11.70;99.90
19734;DHT22;10018;51.230;7.860;2024-03-08T13:43:37;12.20;99.90
19734;DHT22;10018;51.230;7.860;2024-03-08T13:46:03;12.70;99.90
19734;DHT22;10018;51.230;7.860;2024-03-08T13:48:29;13.10;99.90
19734;DHT22;10018;51.230;7.860;2024-03-08T13:50:56;13.50;99.90
19734;DHT22;10018;51.230;7.860;2024-03-08T13:53:22;13.80;99.90
19734;DHT22;10018;51.230;7.860;2024-03-08T13:55:49;14.00;99.90
19734;DHT22;10018;51.230;7.860;2024-03-08T13:58:15;14.50;99.90
19734;DHT22;10018;51.230;7.860;2024-03-08T14:00:41;14.70;99.90
19734;DHT22;10018;51.230;7.860;2024-03-08T14:03:09;14.80;99.90
19734;DHT22;10018;51.230;7.860;2024-03-08T14:05:38;15.00;99.90
19734;DHT22;10018;51.230;7.860;2024-03-08T14:08:08;15.80;99.90
19734;DHT22;10018;51.230;7.860;2024-03-08T14:10:34;16.10;99.90
19734;DHT22;10018;51.230;7.860;2024-03-08T14:13:02;16.10;99.90
19734;DHT22;10018;51.230;7.860;2024-03-08T14:15:33;16.30;99.90
19734;DHT22;10018;51.230;7.860;2024-03-08T14:18:01;16.40;99.90
19734;DHT22;10018;51.230;7.860;2024-03-08T14:20:27;16.60;99.90
19734;DHT22;10018;51.230;7.860;2024-03-08T14:22:55;16.60;99.90
19734;DHT22;10018;51.230;7.860;2024-03-08T14:25:22;16.50;99.90
19734;DHT22;10018;51.230;7.860;2024-03-08T14:27:50;16.40;99.90
19734;DHT22;10018;51.230;7.860;2024-03-08T14:30:16;16.60;99.90
19734;DHT22;10018;51.230;7.860;2024-03-08T14:32:58;16.40;99.90
19734;DHT22;10018;51.230;7.860;2024-03-08T14:35:25;16.50;99.90
19734;DHT22;10018;51.230;7.860;2024-03-08T14:37:55;16.40;99.90
19734;DHT22;10018;51.230;7.860;2024-03-08T14:40:22;17.50;99.90
19734;DHT22;10018;51.230;7.860;2024-03-08T14:42:49;17.40;99.90
19734;DHT22;10018;51.230;7.860;2024-03-08T14:45:15;16.80;99.90
19734;DHT22;10018;51.230;7.860;2024-03-08T14:47:41;17.40;99.90
19734;DHT22;10018;51.230;7.860;2024-03-08T14:50:08;17.70;99.90
19734;DHT22;10018;51.230;7.860;2024-03-08T14:52:35;17.20;99.90
19734;DHT22;10018;51.230;7.860;2024-03-08T14:55:01;17.20;99.90
19734;DHT22;10018;51.230;7.860;2024-03-08T14:57:28;16.80;99.90
19734;DHT22;10018;51.230;7.860;2024-03-08T14:59:56;17.70;99.90
19734;DHT22;10018;51.230;7.860;2024-03-08T15:02:25;17.80;99.90
19734;DHT22;10018;51.230;7.860;2024-03-08T15:04:50;18.10;97.10
19734;DHT22;10018;51.230;7.860;2024-03-08T15:07:23;18.00;97.10
19734;DHT22;10018;51.230;7.860;2024-03-08T15:09:49;18.10;97.10
19734;DHT22;10018;51.230;7.860;2024-03-08T15:12:14;17.20;97.50
19734;DHT22;10018;51.230;7.860;2024-03-08T15:14:40;17.10;97.80
19734;DHT22;10018;51.230;7.860;2024-03-08T15:17:09;17.50;97.20
19734;DHT22;10018;51.230;7.860;2024-03-08T15:19:49;16.90;97.90
19734;DHT22;10018;51.230;7.860;2024-03-08T15:22:14;17.20;98.30
19734;DHT22;10018;51.230;7.860;2024-03-08T15:24:43;17.60;97.30
19734;DHT22;10018;51.230;7.860;2024-03-08T15:27:09;17.50;96.10
19734;DHT22;10018;51.230;7.860;2024-03-08T15:29:34;17.20;96.70
19734;DHT22;10018;51.230;7.860;2024-03-08T15:32:02;17.30;97.30
19734;DHT22;10018;51.230;7.860;2024-03-08T15:34:29;17.30;96.50
19734;DHT22;10018;51.230;7.860;2024-03-08T15:36:57;17.10;97.50
19734;DHT22;10018;51.230;7.860;2024-03-08T15:39:27;17.40;97.30
19734;DHT22;10018;51.230;7.860;2024-03-08T15:41:53;17.90;96.10
19734;DHT22;10018;51.230;7.860;2024-03-08T15:44:20;17.80;96.10
19734;DHT22;10018;51.230;7.860;2024-03-08T15:46:46;18.10;95.80
19734;DHT22;10018;51.230;7.860;2024-03-08T15:49:12;18.10;94.90